Date,TemperatureHighF,TemperatureAvgF,TemperatureLowF,DewpointHighF,DewpointAvgF,DewpointLowF,HumidityHigh,HumidityAvg,HumidityLow,PressureMaxIn,PressureMinIn,WindSpeedMaxMPH,WindSpeedAvgMPH,GustSpeedMaxMPH,PrecipitationSumIn
2013-1-1,41,38,30,41,37,28,98,97,93,30.13,29.98,4,1,12,0.07
2013-1-2,33,28,24,28,24,22,93,86,69,30.23,30.12,2,1,7,0.07
2013-1-3,44,30,22,27,22,18,96,74,37,30.40,30.21,4,1,11,0.01
2013-1-4,45,31,19,29,23,18,96,75,48,30.47,30.37,4,1,11,0.01
2013-1-5,47,35,21,32,26,19,96,74,49,30.40,30.23,3,0,9,0.00
2013-1-6,48,38,26,37,32,22,95,80,56,30.35,30.15,5,2,12,0.00
2013-1-7,49,33,22,30,25,19,93,75,44,30.42,30.23,3,0,8,0.00
2013-1-8,58,43,27,42,33,24,92,71,43,30.30,30.18,3,1,10,0.00
2013-1-9,54,51,48,53,49,43,98,93,77,30.35,30.22,4,1,10,0.31
2013-1-10,65,58,52,61,57,51,99,95,86,30.32,29.91,6,3,16,0.03
2013-1-11,69,63,57,62,58,54,96,85,65,30.01,29.89,5,2,21,0.11
2013-1-12,68,66,64,65,64,62,99,92,83,29.96,29.76,6,2,19,0.37
2013-1-13,68,51,32,62,49,30,98,94,82,30.18,29.74,6,3,22,2.72
2013-1-14,32,28,26,29,26,23,94,89,82,30.37,30.18,5,2,16,2.72
2013-1-15,32,29,26,31,28,24,97,94,93,30.24,29.99,3,1,8,0.00
2013-1-16,32,32,30,31,31,30,97,97,95,30.12,29.99,0,0,0,0.01
2013-1-17,45,35,31,38,32,28,97,88,71,30.42,30.05,6,1,13,0.09
2013-1-18,50,36,24,33,27,22,96,73,41,30.55,30.34,3,0,9,0.02
2013-1-19,57,43,29,34,29,26,92,63,35,30.35,30.13,5,1,15,0.02
2013-1-24,32,31,31,11,11,10,42,42,41,30.25,30.24,3,2,7,0.00
2013-1-25,42,34,30,39,30,12,96,86,43,30.24,29.99,4,1,10,0.58
2013-1-26,50,37,28,37,30,28,98,79,45,30.32,30.22,3,0,9,0.58
2013-1-27,50,42,30,43,36,28,93,82,65,30.30,30.16,4,2,10,0.00
2013-1-28,61,56,50,54,48,39,86,77,65,30.19,30.06,4,2,15,0.00
2013-1-29,70,63,52,64,59,50,95,86,76,30.07,29.50,7,3,23,0.00
2013-1-30,71,50,34,63,44,25,98,81,65,29.89,29.42,9,4,28,0.08
2013-1-31,46,37,28,34,26,22,95,65,44,30.22,29.89,8,3,10,0.05
2013-2-1,30,22,13,25,14,10,90,72,46,30.48,30.22,5,1,8,0.01
2013-2-2,47,33,20,31,26,16,92,75,55,30.32,30.06,6,1,9,0.07
2013-2-3,50,39,29,35,29,25,91,69,45,30.13,30.00,7,2,12,0.00
2013-2-4,60,42,28,35,29,24,93,65,28,30.08,29.88,5,1,9,0.00
2013-2-5,63,51,44,44,38,33,82,64,40,30.02,29.89,4,1,7,0.00
2013-2-6,60,47,36,38,33,28,91,61,33,30.19,30.02,3,1,5,0.00
2013-2-7,64,53,42,49,41,29,84,66,51,30.07,29.85,4,1,7,0.00
2013-2-8,52,42,34,48,37,28,96,83,72,30.29,29.84,5,2,16,0.23
2013-2-9,54,42,32,35,30,26,85,65,35,30.33,30.09,4,2,7,0.00
2013-2-10,57,52,43,56,45,34,96,78,53,30.09,29.78,7,2,18,0.65
2013-2-11,58,48,40,56,36,28,95,64,39,30.13,29.88,4,2,6,0.65
2013-2-12,51,43,33,39,34,30,93,71,49,30.13,29.76,4,1,8,0.07
2013-2-13,42,38,33,39,36,32,96,91,85,29.98,29.69,4,1,7,0.24
2013-2-14,56,40,30,40,32,30,98,78,37,30.01,29.96,4,0,6,0.01
2013-2-15,50,42,30,37,30,20,86,65,41,30.15,29.99,5,2,10,0.00
2013-2-16,39,29,20,25,16,10,92,60,34,30.20,30.10,8,2,14,0.00
2013-2-17,47,33,17,22,17,11,90,55,31,30.27,30.12,4,1,8,0.00
2013-2-18,62,46,34,37,29,21,68,52,37,30.14,29.91,7,3,12,0.00
2013-2-21,44,44,44,44,43,43,97,97,97,29.82,29.82,2,1,5,0.82
2013-2-22,60,49,38,49,43,35,97,81,49,30.01,29.81,3,1,8,0.86
2013-2-23,52,40,33,35,32,27,95,73,43,29.99,29.88,4,1,6,0.00
2013-2-24,54,38,28,28,26,24,90,65,33,30.10,29.97,4,1,6,0.00
2013-2-25,58,46,38,46,29,24,86,52,32,30.05,29.43,7,2,11,0.02
2013-2-26,50,45,38,48,41,34,96,88,66,29.69,29.34,7,3,14,0.04
2013-2-27,39,38,37,35,32,31,89,80,75,29.89,29.70,5,3,13,0.01
2013-2-28,38,36,32,31,28,26,86,75,65,30.04,29.85,5,2,10,0.01
2013-3-1,37,33,32,32,31,29,96,90,80,30.06,30.00,4,2,7,0.02
2013-3-2,32,30,28,30,28,25,96,92,86,30.16,30.03,5,2,7,0.03
2013-3-3,42,32,22,25,21,17,93,67,37,30.17,30.06,4,1,10,0.02
2013-3-4,59,45,30,39,28,22,83,54,35,30.10,29.78,6,2,11,0.02
2013-3-5,56,46,32,54,41,20,96,82,58,30.01,29.66,10,4,19,0.04
2013-3-6,41,35,28,29,26,25,86,71,59,30.28,30.23,6,2,11,0.00
2013-3-7,46,35,26,31,28,24,91,75,53,30.37,30.27,4,1,8,0.00
2013-3-8,58,40,26,30,25,17,93,61,21,30.38,30.22,4,1,7,0.00
2013-3-9,66,56,41,39,33,28,67,43,27,30.21,29.96,5,2,7,0.01
2013-3-10,70,62,55,55,46,36,97,60,37,29.95,29.71,7,3,13,0.67
2013-3-11,56,44,38,55,41,31,98,87,73,29.97,29.70,6,2,9,1.13
2013-3-12,53,41,28,32,29,25,95,66,37,30.13,29.96,6,2,10,0.00
2013-3-13,44,37,30,29,24,20,82,59,40,30.38,30.11,8,3,14,0.00
2013-3-14,50,37,21,26,21,18,93,57,30,30.40,30.17,4,1,5,0.00
2013-3-15,77,58,34,48,38,24,79,51,33,30.17,29.82,7,2,11,0.00
2013-3-16,77,66,56,52,49,46,71,56,39,29.87,29.75,6,3,13,0.00
2013-3-17,59,53,46,51,46,42,85,78,69,29.90,29.71,4,2,10,0.00
2013-3-18,65,57,42,59,52,40,97,84,70,29.95,29.64,6,3,14,1.04
2013-3-19,41,41,41,39,39,39,93,93,93,29.96,29.96,0,0,0,0.00
2013-3-26,40,36,32,28,27,25,77,68,61,30.33,30.27,3,0,6,0.06
2013-3-27,53,40,24,31,26,22,94,61,32,30.39,30.27,5,1,8,0.01
2013-3-28,63,48,34,37,32,26,86,56,31,30.34,30.22,4,1,9,0.00
2013-3-29,50,48,44,48,41,34,97,80,59,30.26,30.14,3,0,5,0.38
2013-3-30,57,50,45,53,48,44,98,94,78,30.16,29.89,2,1,4,0.17
2013-3-31,56,53,44,55,51,42,98,94,83,29.89,29.83,4,1,5,0.10
2013-4-1,63,50,36,47,38,29,99,69,39,30.11,29.87,6,2,9,0.00
2013-4-2,48,42,38,31,27,22,68,54,36,30.24,30.10,3,1,4,0.00
2013-4-3,53,46,37,30,23,20,66,41,29,30.24,30.12,6,3,10,0.00
2013-4-4,48,43,38,36,31,24,93,66,40,30.11,30.02,3,1,6,0.28
2013-4-5,67,59,43,45,37,32,98,48,31,30.10,30.00,5,2,8,0.00
2013-4-6,74,56,37,43,39,35,94,58,27,30.10,29.92,5,1,11,0.00
2013-4-7,75,64,56,52,46,40,71,54,36,30.01,29.90,5,2,9,0.00
2013-4-8,78,65,53,57,53,47,84,65,42,29.98,29.85,5,2,9,0.00
2013-4-9,79,69,60,64,60,56,88,75,56,30.04,29.90,4,1,9,0.00
2013-4-10,85,74,64,63,60,56,86,63,44,29.95,29.70,5,2,8,0.00
2013-4-11,73,63,46,62,57,45,97,82,55,29.71,29.57,6,2,16,1.19
2013-4-12,66,51,37,45,40,36,98,71,39,29.94,29.68,7,2,16,0.01
2013-4-13,71,53,37,42,37,33,86,57,26,30.07,29.92,3,1,8,0.00
2013-4-14,71,58,47,52,46,41,83,66,40,29.94,29.78,7,2,20,0.00
2013-4-15,82,68,53,60,56,51,92,68,41,29.93,29.82,4,2,12,0.00
2013-4-16,81,70,64,69,64,59,95,82,63,30.06,29.92,3,1,11,0.00
2013-4-17,86,75,64,70,65,63,99,75,47,30.07,29.86,4,1,12,0.00
2013-4-18,82,74,60,67,64,58,95,71,52,29.86,29.53,6,3,21,0.76
2013-4-19,58,44,36,56,38,33,96,80,59,30.09,29.59,8,2,23,0.16
2013-4-20,63,48,32,40,34,30,97,64,30,30.26,30.09,4,1,12,0.01
2013-4-21,67,53,37,45,36,28,88,56,26,30.34,30.18,4,1,12,0.00
2013-4-22,72,58,43,48,44,40,90,61,35,30.22,30.03,4,1,16,0.00
2013-4-23,71,58,50,56,51,46,88,78,58,30.07,29.90,2,0,13,0.00
2013-4-24,66,52,41,62,47,37,96,83,72,30.25,29.79,7,2,19,0.67
2013-4-25,67,50,32,42,36,31,97,66,28,30.35,30.23,3,1,10,0.01
2013-4-26,62,51,41,48,44,38,96,79,52,30.39,30.22,4,1,11,0.45
2013-4-27,52,50,49,51,49,48,97,97,96,30.29,30.12,4,1,9,0.32
2013-4-28,67,60,53,57,54,51,96,82,67,29.92,29.85,4,1,10,0.06
2013-4-29,77,61,47,56,52,46,99,74,34,29.98,29.85,3,0,10,0.00
2013-4-30,80,64,48,58,53,46,97,70,38,29.96,29.88,3,1,12,0.01
2013-5-1,78,66,55,64,58,53,95,76,51,30.05,29.95,4,1,11,0.00
2013-5-2,78,65,56,65,58,54,95,81,55,30.09,29.99,4,1,10,0.01
2013-5-3,73,62,42,60,54,41,96,78,56,29.99,29.74,7,3,19,0.63
2013-5-4,54,45,39,45,42,38,97,89,69,29.94,29.83,2,0,8,0.74
2013-5-5,62,51,39,49,45,38,98,82,57,29.89,29.76,4,1,12,0.00
2013-5-6,63,54,50,58,52,48,98,93,77,29.86,29.74,2,0,9,0.37
2013-5-7,70,56,43,58,52,42,99,87,62,29.97,29.86,2,0,8,0.01
2013-5-8,79,65,52,61,56,51,98,76,47,30.01,29.92,4,1,10,0.00
2013-5-9,82,68,55,64,59,54,97,74,46,30.03,29.90,2,0,11,0.00
2013-5-10,69,65,62,65,63,61,98,93,81,29.90,29.82,2,1,10,1.04
2013-5-11,68,61,54,62,56,51,99,85,61,30.01,29.86,4,1,11,0.02
2013-5-12,64,54,41,49,38,31,91,58,31,30.14,30.02,4,1,13,0.00
2013-5-13,71,55,36,48,40,35,96,64,32,30.24,30.10,4,1,11,0.00
2013-5-14,85,67,46,61,54,45,95,67,41,30.12,29.94,3,1,11,0.00
2013-5-15,84,73,62,62,56,51,76,57,34,30.04,29.90,3,1,11,0.00
2013-5-16,82,71,62,66,60,56,89,71,50,29.97,29.86,2,0,8,0.00
2013-5-17,67,65,62,66,63,57,98,94,76,29.96,29.86,2,0,8,0.40
2013-5-18,83,73,65,71,68,64,99,86,63,29.95,29.88,2,0,8,0.04
2013-5-19,86,76,67,75,70,67,99,83,65,29.93,29.85,3,1,12,0.00
2013-5-20,83,74,65,73,69,64,98,85,69,29.94,29.82,2,1,9,0.00
2013-5-21,78,70,64,71,67,63,98,92,78,29.94,29.76,4,1,11,0.72
2013-5-22,76,68,61,68,64,60,99,90,71,29.84,29.74,3,1,12,0.17
2013-5-23,76,67,59,63,59,55,99,79,57,30.03,29.83,4,1,13,0.00
2013-5-24,70,62,54,56,50,48,88,68,46,30.25,30.03,3,2,11,0.00
2013-5-26,84,74,62,63,59,56,89,63,41,30.11,30.05,1,0,7,0.00
2013-5-27,84,71,55,66,61,54,98,74,45,30.08,29.95,3,1,9,0.00
2013-5-28,85,74,62,65,62,60,92,69,44,30.02,29.93,3,1,12,0.00
2013-5-29,85,75,64,69,66,62,94,73,49,30.05,29.93,3,1,12,0.00
2013-5-30,84,76,70,74,68,64,83,75,63,30.03,29.90,4,2,15,0.00
2013-5-31,82,76,72,74,69,66,88,81,72,29.98,29.87,2,1,11,0.01
2013-6-1,80,71,64,71,67,64,98,88,74,29.92,29.76,4,1,13,0.37
2013-6-2,79,69,64,69,65,60,99,87,68,29.89,29.83,3,0,10,0.00
2013-6-3,78,68,57,64,60,56,98,79,56,29.97,29.87,2,0,8,0.00
2013-6-4,81,68,55,67,60,54,96,77,51,29.99,29.90,2,0,7,0.00
2013-6-5,82,70,61,72,66,60,98,88,68,29.93,29.77,3,0,6,0.53
2013-6-7,75,68,63,68,64,61,96,87,77,29.82,29.75,1,0,5,0.01
2013-6-8,81,64,58,66,61,57,99,90,54,29.95,29.80,0,0,6,0.00
2013-6-9,84,71,60,74,67,59,98,88,65,29.97,29.78,3,0,10,0.15
2013-6-10,84,76,66,73,70,66,99,83,63,29.87,29.78,3,1,12,0.02
2013-6-11,91,76,66,79,72,65,99,88,64,29.95,29.86,3,0,8,0.00
2013-6-12,91,81,74,78,75,72,96,81,62,29.99,29.83,3,0,8,0.00
2013-6-13,87,78,66,77,71,64,93,80,60,29.88,29.76,4,2,15,0.00
2013-6-14,82,70,57,66,61,55,96,73,52,29.97,29.86,3,1,9,0.00
2013-6-15,86,73,59,72,64,58,97,77,49,30.03,29.93,2,0,7,0.00
2013-6-16,85,75,65,76,70,64,98,86,67,30.00,29.90,1,0,8,0.00
2013-6-17,85,74,66,77,70,65,98,90,72,29.91,29.80,2,0,9,0.13
2013-6-18,82,72,66,72,68,65,98,89,62,29.90,29.75,4,0,9,0.55
2013-6-19,87,75,64,73,68,63,99,80,53,29.99,29.89,2,0,7,0.00
2013-6-20,90,77,64,74,69,63,98,79,50,30.08,29.99,2,0,7,0.01
2013-6-21,88,76,66,74,69,64,96,80,57,30.13,30.03,2,0,6,0.00
2013-6-22,87,76,66,73,69,65,98,79,53,30.12,29.99,2,0,7,0.00
2013-6-23,88,76,65,75,69,64,98,80,54,30.08,29.97,2,0,6,0.01
2013-6-24,90,77,67,75,71,66,98,84,56,30.09,29.98,2,0,8,0.00
2013-6-25,88,76,69,77,72,68,99,88,67,30.03,29.98,2,0,6,0.00
2013-6-27,92,84,72,80,76,71,99,77,56,29.81,29.75,4,1,12,0.81
2013-6-28,86,81,73,75,73,70,93,77,64,29.74,29.61,4,2,16,0.00
2013-6-29,84,78,65,69,66,60,84,67,52,29.65,29.57,3,1,11,0.00
2013-6-30,66,60,58,63,59,57,98,94,85,29.69,29.62,0,0,1,0.00
2013-7-1,77,70,64,67,66,63,99,87,70,29.82,29.75,3,1,10,0.04
2013-7-2,74,66,62,66,63,61,98,93,76,29.96,29.82,1,0,6,0.00
2013-7-3,83,72,59,70,66,58,99,82,56,30.03,29.96,2,0,5,0.00
2013-7-4,72,69,66,70,67,65,98,96,92,30.02,29.96,3,1,9,0.06
2013-7-5,77,70,66,72,69,65,99,95,82,30.04,29.96,3,0,11,0.18
2013-7-6,73,69,67,69,68,66,99,97,87,30.05,29.98,3,0,7,0.21
2013-7-7,87,75,65,74,70,64,98,84,62,30.06,29.98,1,0,7,0.00
2013-7-8,90,77,67,76,71,66,98,85,56,30.10,30.00,2,0,5,0.00
2013-7-9,92,77,69,78,73,68,99,89,58,30.07,29.95,1,0,7,0.00
2013-7-10,92,81,72,80,75,70,99,84,64,29.97,29.81,3,1,9,0.04
2013-7-11,84,72,69,76,70,62,99,92,78,29.90,29.86,1,0,4,0.01
2013-7-12,82,72,64,67,62,59,92,74,50,29.95,29.88,3,1,10,0.00
2013-7-13,82,70,58,66,62,56,97,76,53,29.99,29.93,3,1,11,0.00
2013-7-20,93,84,74,74,71,69,89,66,49,29.92,29.78,3,1,0,0.00
2013-7-21,87,75,70,77,72,69,98,91,72,29.91,29.84,2,0,0,0.58
2013-7-22,76,72,69,73,71,68,99,94,86,29.87,29.81,2,0,8,0.85
2013-7-23,87,77,70,76,72,68,99,85,60,29.86,29.75,3,1,9,0.00
2013-7-24,86,76,67,74,70,63,97,83,61,29.89,29.74,2,0,10,0.01
2013-7-25,83,72,60,67,63,59,96,76,51,29.99,29.87,2,0,10,0.00
2013-7-26,83,72,59,69,64,58,97,78,56,30.00,29.89,2,0,7,0.00
2013-7-27,83,73,65,70,67,64,97,82,60,29.94,29.82,3,1,9,0.00
2013-7-28,76,68,59,65,59,54,94,74,50,30.03,29.89,2,0,8,0.00
2013-7-29,78,66,56,66,60,55,98,83,55,30.13,30.01,2,0,6,0.00
2013-7-30,81,71,62,73,67,61,98,89,64,30.12,29.99,2,0,9,0.10
2013-7-31,73,70,68,73,69,67,99,98,97,30.01,29.94,2,0,5,0.55
2013-8-1,72,68,66,72,67,65,98,95,90,29.97,29.93,1,0,3,0.01
2013-8-2,86,73,60,70,65,60,99,79,45,29.99,29.91,2,0,5,0.00
2013-8-3,78,71,67,74,69,66,98,95,86,30.00,29.91,0,0,3,0.36
2013-8-4,84,75,68,74,70,62,99,84,63,30.04,29.97,3,0,8,0.00
2013-8-5,78,70,65,69,66,62,97,85,60,30.02,29.89,2,0,6,0.01
2013-8-6,80,74,68,76,72,67,98,94,86,29.93,29.84,1,0,6,0.02
2013-8-7,72,71,70,72,71,70,99,98,97,29.93,29.84,1,0,5,0.40
2013-8-10,86,78,69,77,73,69,99,87,69,30.06,29.96,2,0,7,0.02
2013-8-11,86,77,72,78,74,71,99,91,76,30.06,29.97,3,0,9,0.45
2013-8-12,82,74,70,76,73,70,99,94,82,30.02,29.88,2,0,9,0.01
2013-8-13,76,72,70,70,67,66,90,85,80,29.93,29.88,1,0,5,0.00
2013-8-14,76,67,60,67,60,55,92,78,55,30.03,29.93,3,1,12,0.00
2013-8-15,80,67,56,65,59,54,93,77,56,30.02,29.93,2,1,7,0.00
2013-8-16,76,71,65,68,66,63,97,84,71,30.02,29.96,2,1,8,0.01
2013-8-17,74,69,65,68,66,64,98,91,78,30.06,29.99,2,0,6,0.01
2013-8-18,80,71,63,70,66,62,99,85,65,30.09,30.01,2,0,5,0.00
2013-8-19,74,70,66,71,69,65,98,95,90,30.05,29.98,0,0,4,0.00
2013-8-20,86,75,68,75,71,67,99,89,60,30.07,29.97,2,0,5,0.55
2013-8-21,87,76,68,77,72,68,99,88,65,30.10,30.01,3,0,8,0.00
2013-8-22,74,70,67,72,69,66,99,97,93,30.06,29.97,0,0,2,0.02
2013-8-23,90,76,67,76,71,67,99,86,56,30.02,29.92,4,0,8,0.36
2013-8-24,87,77,68,75,70,68,99,83,57,30.11,30.00,2,0,7,0.00
2013-8-25,86,76,68,73,69,67,97,82,60,30.24,30.12,3,1,8,0.00
2013-8-26,87,74,64,71,67,63,98,81,49,30.22,30.07,2,0,5,0.01
2013-8-27,87,74,62,75,68,61,99,83,58,30.09,29.98,2,0,7,0.00
2013-8-28,90,77,65,74,70,64,99,83,55,30.02,29.94,2,0,6,0.00
2013-8-29,92,79,68,78,73,67,99,83,57,29.99,29.89,2,0,8,0.00
2013-8-30,93,81,71,77,74,70,99,81,54,29.93,29.82,3,0,8,0.00
2013-8-31,92,80,69,77,73,69,99,82,57,29.87,29.75,3,0,10,0.00
2013-9-1,82,72,66,74,69,65,99,93,72,29.87,29.75,4,0,15,1.31
2013-9-2,84,74,67,77,71,66,99,92,76,29.86,29.77,1,0,7,0.00
2013-9-3,85,74,64,71,67,64,99,82,53,29.97,29.84,2,0,7,0.01
2013-9-4,84,72,62,68,64,61,98,80,52,30.07,29.96,2,0,6,0.01
2013-9-5,83,70,59,69,64,58,99,81,52,30.12,30.05,2,0,8,0.00
2013-9-6,88,73,60,72,66,59,99,82,49,30.10,29.99,1,0,5,0.01
2013-9-7,89,74,61,73,67,60,98,81,53,30.03,29.91,2,0,8,0.01
2013-9-8,91,76,64,75,70,64,99,83,53,29.95,29.86,1,0,6,0.00
2013-9-9,91,77,69,77,72,68,98,85,53,29.99,29.91,2,0,6,0.00
2013-9-10,90,75,70,77,72,69,98,91,59,30.10,29.99,2,0,9,0.17
2013-9-11,89,76,68,76,72,68,100,87,60,30.14,30.01,1,0,6,0.01
2013-9-12,88,76,69,75,72,69,99,88,60,30.01,29.85,3,0,9,0.01
2013-9-13,77,69,58,70,60,51,98,76,46,29.96,29.88,3,1,11,0.00
2013-9-14,74,60,46,56,52,45,97,75,47,30.05,29.95,4,1,9,0.00
2013-9-15,83,65,51,63,57,50,98,79,44,30.06,30.00,2,0,7,0.01
2013-9-16,84,69,56,68,61,55,98,80,40,30.12,30.04,2,0,7,0.00
2013-9-17,86,72,62,69,65,61,97,82,53,30.12,30.00,2,0,6,0.01
2013-9-18,83,73,66,72,67,63,96,85,66,30.09,29.98,3,0,10,0.00
2013-9-19,87,74,65,71,67,64,97,81,55,30.07,29.92,2,0,8,0.00
2013-9-20,86,73,64,73,68,63,98,87,61,29.94,29.71,2,0,12,0.08
2013-9-21,74,65,57,69,59,52,98,82,55,29.82,29.70,3,1,13,0.00
2013-9-22,75,62,52,56,53,50,94,74,50,29.90,29.81,3,1,11,0.00
2013-9-23,79,63,51,62,56,50,98,80,45,29.95,29.87,2,0,8,0.01
2013-9-24,79,67,56,69,63,56,99,88,63,29.92,29.77,2,0,9,0.02
2013-9-25,78,68,62,68,66,61,99,91,69,29.81,29.74,2,0,7,0.31
2013-9-26,78,66,60,68,63,59,99,91,65,29.96,29.80,2,0,7,0.01
2013-9-27,82,67,55,67,61,55,99,84,52,30.06,29.96,2,0,5,0.01
2013-9-28,79,66,57,63,59,56,98,80,50,30.12,30.00,3,0,9,0.01
2013-9-29,65,59,56,60,57,55,97,93,80,30.03,30.00,1,0,7,0.00
2013-9-30,71,67,63,64,63,61,94,85,75,29.99,29.91,3,1,9,0.00
2013-10-1,81,70,62,72,66,60,98,89,70,30.04,29.95,1,0,6,0.00
2013-10-2,82,72,66,71,68,65,99,88,66,30.06,29.99,3,0,8,0.00
2013-10-3,83,72,65,69,66,64,98,82,54,30.04,29.93,2,0,11,0.00
2013-10-4,84,72,63,72,67,62,98,86,62,30.05,29.95,2,0,9,0.00
2013-10-5,87,75,65,73,69,65,98,84,60,30.00,29.83,2,0,11,0.00
2013-10-6,73,62,50,68,59,50,98,92,78,29.91,29.78,4,1,13,0.05
2013-10-7,66,54,43,52,48,43,99,84,58,30.08,29.90,3,0,9,0.01
2013-10-8,71,57,48,54,50,45,93,77,47,30.12,30.04,4,1,13,0.00
2013-10-9,77,62,51,65,58,50,98,85,63,30.14,30.05,2,0,9,0.00
2013-10-10,78,65,56,67,61,56,99,88,60,30.11,29.98,2,0,6,0.00
2013-10-11,81,64,53,64,58,52,99,85,50,30.05,29.94,2,0,8,0.01
2013-10-12,77,64,52,68,60,51,99,88,63,30.08,29.97,2,0,7,0.01
2013-10-13,79,67,57,67,62,55,99,86,65,30.20,30.08,3,0,10,0.00
2013-10-14,80,66,55,63,58,53,94,78,48,30.19,30.04,2,0,8,0.00
2013-10-15,73,67,61,65,62,60,97,86,71,30.06,29.93,2,0,8,0.00
2013-10-16,66,62,56,65,60,56,98,96,91,29.95,29.87,1,0,11,0.26
2013-10-17,64,56,48,56,53,47,99,90,67,29.98,29.87,2,0,7,0.11
2013-10-18,66,52,40,54,47,39,99,86,55,30.07,29.93,2,0,6,0.01
2013-10-19,54,48,38,51,46,38,98,94,77,30.06,29.88,4,0,10,0.06
2013-10-20,64,46,32,46,39,31,99,82,44,30.12,30.00,2,0,6,0.01
2013-10-21,70,52,36,52,44,35,99,80,43,30.07,29.96,2,0,8,0.01
2013-10-22,62,52,46,52,47,43,97,85,53,30.03,29.85,3,0,7,0.05
2013-10-23,52,45,39,46,39,36,96,81,55,30.10,29.86,3,1,10,0.00
2013-10-24,55,45,34,44,39,31,96,81,56,30.36,30.10,4,1,9,0.00
2013-10-25,51,37,26,32,29,24,96,75,42,30.50,30.33,2,0,10,0.01
2013-10-26,61,44,27,46,35,25,97,74,43,30.33,30.09,2,0,9,0.00
2013-10-27,63,55,47,56,51,45,96,88,74,30.10,30.02,1,0,5,0.01
2013-10-28,64,57,49,59,55,48,99,95,81,30.22,30.05,1,0,5,0.07
2013-10-29,70,58,46,63,56,46,99,91,75,30.26,30.12,1,0,5,0.00
2013-10-30,75,66,55,64,60,54,99,82,62,30.18,30.00,2,0,9,0.01
2013-10-31,69,65,61,65,62,57,97,91,78,29.99,29.52,5,2,22,0.51
2013-11-1,70,58,47,56,49,42,99,75,39,29.81,29.66,5,1,12,0.00
2013-11-2,63,50,42,48,43,39,98,78,51,30.15,29.81,5,1,12,0.00
2013-11-3,58,44,32,43,36,31,98,77,36,30.29,30.14,3,0,10,0.00
2013-11-4,63,49,35,46,40,34,96,73,45,30.34,30.22,3,0,11,0.00
2013-11-5,71,58,50,49,43,39,72,60,42,30.34,30.18,3,1,12,0.00
2013-11-6,70,61,46,60,53,42,97,77,58,30.18,29.99,6,2,14,0.34
2013-11-7,54,44,33,45,34,27,96,69,36,30.32,30.11,4,1,12,0.00
2013-11-8,58,42,28,37,31,27,97,69,34,30.40,30.23,3,0,9,0.00
2013-11-9,60,46,32,42,34,29,90,66,37,30.29,30.18,3,0,9,0.00
2013-11-10,66,52,39,45,37,28,95,60,31,30.34,30.23,3,1,10,0.00
2013-11-11,70,51,30,37,30,21,92,52,18,30.28,30.12,3,0,9,0.00
2013-11-12,54,39,28,43,28,18,90,66,40,30.62,30.16,6,3,20,0.00
2013-11-13,45,32,22,25,21,17,91,67,33,30.71,30.44,3,0,8,0.00
2013-11-14,58,39,20,26,20,18,93,55,21,30.44,30.18,3,0,8,0.00
2013-11-15,53,46,33,50,40,22,95,80,58,30.19,30.05,2,0,8,0.00
2013-11-16,63,57,51,60,55,50,98,94,90,30.08,29.93,4,1,13,0.01
2013-11-17,70,65,54,67,62,45,98,90,70,29.91,29.68,6,2,19,0.19
2013-11-18,61,52,42,45,36,28,74,55,39,30.23,29.91,5,1,12,0.00
2013-11-19,49,42,36,30,28,26,78,58,42,30.28,30.17,5,2,13,0.00
2013-11-20,61,46,29,37,32,27,94,63,36,30.23,30.11,4,1,14,0.00
2013-11-21,66,56,46,55,48,37,92,75,55,30.26,30.14,4,1,11,0.02
2013-11-22,58,48,43,56,46,41,93,92,90,30.33,30.17,4,2,13,0.14
2013-11-23,44,38,24,41,29,15,95,73,32,30.56,30.32,5,3,14,0.01
2013-11-24,33,26,18,16,15,13,80,63,44,30.66,30.47,5,2,14,0.00
2013-11-25,41,33,27,32,23,14,94,68,40,30.47,30.16,3,1,9,0.08
2013-11-26,37,35,33,35,33,28,97,92,77,30.17,29.90,4,2,12,0.22
2013-11-27,34,27,22,27,19,15,78,71,61,30.24,30.01,6,4,18,0.00
2013-11-28,45,36,26,21,16,15,79,46,31,30.49,30.39,2,0,7,0.00
2013-11-29,51,34,20,29,24,18,92,69,39,30.58,30.44,2,0,8,0.00
2013-11-30,59,42,25,32,27,22,93,59,26,30.45,30.22,6,1,10,0.00
2013-12-1,55,48,38,42,36,29,77,64,50,30.22,29.92,4,0,5,0.00
2013-12-2,56,52,47,50,47,41,93,85,74,29.92,29.72,3,0,7,0.00
2013-12-3,60,55,51,57,53,50,97,92,82,29.77,29.71,5,1,9,0.00
2013-12-4,74,67,58,63,60,57,95,81,58,29.82,29.70,9,2,15,0.00
2013-12-5,68,51,33,66,49,32,96,93,87,30.09,29.82,7,2,11,0.35
2013-12-6,33,31,26,32,30,25,96,95,94,30.39,30.04,9,2,13,0.06
2013-12-7,29,26,24,28,24,22,95,94,93,30.54,30.29,8,2,11,0.00
2013-12-8,38,34,29,38,34,28,98,97,95,30.31,30.05,5,0,8,0.51
2013-12-9,36,32,29,35,30,25,98,92,85,30.26,30.10,6,2,13,0.00
2013-12-10,39,30,23,27,24,20,94,80,58,30.42,30.15,6,1,11,0.05
2013-12-11,45,30,18,32,24,16,97,79,47,30.56,30.40,8,1,12,0.00
2013-12-12,39,26,14,20,16,12,94,70,39,30.62,30.41,5,0,7,0.00
2013-12-13,44,32,17,33,22,15,93,70,40,30.41,29.97,5,0,10,0.02
2013-12-14,46,40,34,46,38,31,98,93,78,30.03,29.79,9,2,14,0.56
2013-12-15,34,31,27,32,28,26,94,88,81,30.24,30.03,7,1,12,0.00
2013-12-16,55,40,26,38,32,25,97,75,51,30.20,30.10,6,1,13,0.00
2013-12-17,56,44,32,40,33,25,83,66,48,30.29,30.09,11,2,16,0.00
2013-12-18,53,38,22,30,23,15,95,60,24,30.37,30.17,9,0,9,0.00
2013-12-19,62,52,40,49,40,28,71,63,57,30.20,30.01,13,2,13,0.00
2013-12-20,63,60,55,60,54,41,92,83,58,30.01,29.85,14,2,15,0.01
2013-12-21,73,67,61,67,63,60,97,87,80,29.85,29.53,12,3,23,1.01
2013-12-22,52,42,28,26,23,20,82,49,31,30.39,30.32,3,0,7,0.00
2013-12-23,28,26,24,24,23,22,90,86,80,30.34,30.30,0,0,1,0.00
2013-12-24,39,39,39,39,38,38,98,97,97,29.97,29.93,1,0,3,0.20
2013-12-25,33,31,29,29,28,26,89,87,86,30.20,30.14,4,1,7,0.00
2013-12-26,23,22,20,22,20,19,95,94,93,30.39,30.31,0,0,2,0.00
2013-12-27,27,25,21,24,22,19,94,91,88,30.34,30.27,0,0,1,0.00
2013-12-28,44,40,39,38,36,31,97,86,60,30.25,29.99,3,0,6,0.24
2013-12-29,54,46,34,43,39,31,91,77,64,30.13,29.93,9,2,10,0.24
2013-12-30,32,30,25,27,26,23,92,85,79,30.31,30.22,1,0,5,0.00
2013-12-31,45,35,29,28,26,24,86,70,50,30.38,30.36,1,0,6,0.00
2014-1-1,45,43,41,36,33,30,80,70,54,30.09,29.98,1,0,7,0.00
2014-1-2,27,23,20,25,16,12,91,76,70,30.37,30.06,16,4,16,0.25